Time;durP1;ratioP1;P1;durP2;ratioP2;P2;SDS_P1;SDS_P2;PMS_P1;PMS_P2;Temp;Humidity;BMP_temperature;BMP_pressure;BME280_temperature;BME280_humidity;BME280_pressure;Samples;Min_cycle;Max_cycle;Signal;HPM_P1;HPM_P2
2022/10/26 00:02:12;;;;;;;3.90;1.00;;;;;;;;;;5006744;28;20050;-73
2022/10/26 00:04:42;;;;;;;5.55;0.80;;;;;;;;;;5006454;28;20050;-73
2022/10/26 00:07:12;;;;;;;1.83;1.25;;;;;;;;;;5006666;28;20057;-73
2022/10/26 00:09:42;;;;;;;7.38;1.50;;;;;;;;;;5006053;28;20475;-74
2022/10/26 00:12:12;;;;;;;2.90;1.60;;;;;;;;;;5006491;28;20058;-74
2022/10/26 00:14:41;;;;;;;1.77;1.00;;;;;;;;;;5006070;28;20046;-73
2022/10/26 00:17:11;;;;;;;3.60;1.30;;;;;;;;;;5006354;28;20505;-73
2022/10/26 00:19:44;;;;;;;3.72;1.38;;;;;;;;;;5006523;28;20101;-75
2022/10/26 00:22:14;;;;;;;2.95;1.40;;;;;;;;;;4987662;28;20045;-75
2022/10/26 00:24:44;;;;;;;5.07;1.40;;;;;;;;;;5006002;28;20045;-74
2022/10/26 00:27:14;;;;;;;1.77;1.08;;;;;;;;;;5006001;28;20050;-73
2022/10/26 00:29:44;;;;;;;2.50;0.93;;;;;;;;;;5005772;28;20389;-75
2022/10/26 00:32:14;;;;;;;2.15;1.27;;;;;;;;;;5010506;28;20050;-73
2022/10/26 00:34:44;;;;;;;3.05;1.27;;;;;;;;;;5010269;28;20049;-75
2022/10/26 00:37:13;;;;;;;2.08;1.20;;;;;;;;;;5009917;28;20042;-75
2022/10/26 00:39:43;;;;;;;3.35;1.30;;;;;;;;;;5010432;28;20505;-74
2022/10/26 00:42:18;;;;;;;2.75;1.40;;;;;;;;;;5010212;28;20054;-76
2022/10/26 00:44:48;;;;;;;1.95;1.52;;;;;;;;;;5009959;28;20044;-77
2022/10/26 00:47:35;;;;;;;2.60;1.58;;;;;;;;;;5010051;28;20065;-74
2022/10/26 00:50:15;;;;;;;3.13;1.30;;;;;;;;;;5009962;28;20054;-74
2022/10/26 00:52:45;;;;;;;3.35;1.42;;;;;;;;;;5009295;28;20058;-75
2022/10/26 00:55:20;;;;;;;3.42;1.60;;;;;;;;;;5010244;28;20049;-76
2022/10/26 00:57:52;;;;;;;5.57;1.40;;;;;;;;;;5009619;28;20044;-74
2022/10/26 01:00:22;;;;;;;1.40;1.20;;;;;;;;;;5009603;28;20053;-74
2022/10/26 01:02:54;;;;;;;2.53;1.70;;;;;;;;;;5008840;28;20046;-76
2022/10/26 01:05:26;;;;;;;2.60;1.50;;;;;;;;;;5008773;28;20049;-76
2022/10/26 01:07:57;;;;;;;2.53;1.25;;;;;;;;;;5007524;28;20050;-74
2022/10/26 01:10:28;;;;;;;4.15;1.52;;;;;;;;;;4991937;28;20076;-73
2022/10/26 01:12:58;;;;;;;2.97;1.75;;;;;;;;;;5009404;28;20532;-73
2022/10/26 01:16:00;;;;;;;3.05;1.65;;;;;;;;;;5009684;28;20075;-77
2022/10/26 01:19:19;;;;;;;3.30;1.60;;;;;;;;;;5009976;28;20054;-75
2022/10/26 01:22:02;;;;;;;2.25;1.58;;;;;;;;;;4964403;28;20054;-75
2022/10/26 01:24:45;;;;;;;1.42;1.33;;;;;;;;;;5008993;28;20046;-75
2022/10/26 01:27:24;;;;;;;2.38;1.52;;;;;;;;;;5009264;28;20049;-74
2022/10/26 01:30:24;;;;;;;4.45;1.58;;;;;;;;;;5009311;28;20064;-75
2022/10/26 01:33:12;;;;;;;4.70;1.52;;;;;;;;;;5008896;28;20846;-76
2022/10/26 01:36:08;;;;;;;3.15;1.33;;;;;;;;;;5007838;28;20045;-77
2022/10/26 01:38:51;;;;;;;2.85;1.42;;;;;;;;;;5008964;28;20425;-75
2022/10/26 01:41:35;;;;;;;3.35;1.38;;;;;;;;;;5008740;28;20041;-73
2022/10/26 01:44:29;;;;;;;2.13;1.33;;;;;;;;;;5009343;28;20042;-77
2022/10/26 01:47:02;;;;;;;1.30;0.98;;;;;;;;;;4995008;28;20413;-75
2022/10/26 01:49:38;;;;;;;1.65;1.15;;;;;;;;;;5008969;28;20049;-74
2022/10/26 01:52:10;;;;;;;3.28;1.58;;;;;;;;;;5008096;28;20052;-73
2022/10/26 01:54:40;;;;;;;3.65;1.27;;;;;;;;;;5007567;28;20050;-73
2022/10/26 01:57:13;;;;;;;1.77;1.30;;;;;;;;;;5008721;28;20042;-73
2022/10/26 02:00:08;;;;;;;5.32;1.27;;;;;;;;;;5008840;28;20057;-76
2022/10/26 02:02:46;;;;;;;1.60;1.13;;;;;;;;;;5008700;28;20524;-76
2022/10/26 02:05:26;;;;;;;5.72;1.58;;;;;;;;;;5008655;28;20054;-76
2022/10/26 02:08:26;;;;;;;5.65;1.52;;;;;;;;;;5008788;28;20042;-75
2022/10/26 02:11:37;;;;;;;2.08;1.60;;;;;;;;;;5008823;28;20053;-74
2022/10/26 02:14:16;;;;;;;2.75;1.80;;;;;;;;;;4947751;29;20550;-76
2022/10/26 02:16:57;;;;;;;2.13;1.27;;;;;;;;;;5004736;28;20464;-73
2022/10/26 02:19:29;;;;;;;2.22;1.48;;;;;;;;;;5007533;28;20512;-77
2022/10/26 02:22:11;;;;;;;2.15;1.55;;;;;;;;;;5008287;28;20049;-74
2022/10/26 02:24:42;;;;;;;1.67;1.58;;;;;;;;;;5007841;28;20114;-75
2022/10/26 02:27:20;;;;;;;3.28;1.80;;;;;;;;;;5008424;28;20050;-76
2022/10/26 02:29:52;;;;;;;2.30;1.33;;;;;;;;;;5008709;28;20509;-76
2022/10/26 02:32:26;;;;;;;2.15;1.30;;;;;;;;;;5007745;28;20068;-74
2022/10/26 02:34:58;;;;;;;2.17;1.50;;;;;;;;;;5008815;28;20038;-77
2022/10/26 02:37:31;;;;;;;2.92;1.67;;;;;;;;;;5007834;28;20527;-74
2022/10/26 02:40:05;;;;;;;1.85;1.48;;;;;;;;;;5007818;28;20053;-73
2022/10/26 02:42:37;;;;;;;2.85;2.15;;;;;;;;;;5007895;28;20050;-73
2022/10/26 02:45:12;;;;;;;2.78;1.75;;;;;;;;;;5007789;28;20069;-75
2022/10/26 02:47:42;;;;;;;2.80;1.98;;;;;;;;;;5007592;28;20061;-75
2022/10/26 02:50:12;;;;;;;3.75;1.90;;;;;;;;;;5007202;28;20513;-77
2022/10/26 02:52:51;;;;;;;1.77;1.42;;;;;;;;;;5008056;28;20060;-73
2022/10/26 02:55:46;;;;;;;2.40;1.70;;;;;;;;;;5007028;28;20050;-73
2022/10/26 02:58:29;;;;;;;2.92;2.03;;;;;;;;;;5007476;28;20042;-74
2022/10/26 03:01:00;;;;;;;3.33;1.77;;;;;;;;;;5007860;28;20046;-74
2022/10/26 03:03:31;;;;;;;4.95;1.98;;;;;;;;;;5007939;28;20045;-76
2022/10/26 03:06:00;;;;;;;2.70;1.60;;;;;;;;;;5008200;28;20050;-76
2022/10/26 03:08:30;;;;;;;2.67;1.80;;;;;;;;;;5007705;28;20053;-75
2022/10/26 03:11:00;;;;;;;3.95;1.70;;;;;;;;;;5007202;28;20045;-75
2022/10/26 03:13:30;;;;;;;2.50;2.05;;;;;;;;;;4990049;28;20058;-74
2022/10/26 03:16:00;;;;;;;2.25;1.75;;;;;;;;;;5007614;28;20053;-75
2022/10/26 03:18:29;;;;;;;3.28;2.10;;;;;;;;;;5007331;28;20045;-76
2022/10/26 03:20:59;;;;;;;3.22;1.48;;;;;;;;;;5007326;28;20096;-75
2022/10/26 03:23:29;;;;;;;2.28;1.63;;;;;;;;;;5007881;28;20072;-75
2022/10/26 03:25:59;;;;;;;4.20;2.13;;;;;;;;;;5007263;28;20050;-77
2022/10/26 03:28:31;;;;;;;3.25;1.63;;;;;;;;;;5007244;28;20057;-76
2022/10/26 03:31:01;;;;;;;2.58;1.90;;;;;;;;;;5006862;28;20054;-74
2022/10/26 03:33:32;;;;;;;3.63;2.20;;;;;;;;;;5007020;28;20053;-76
2022/10/26 03:36:03;;;;;;;3.90;1.80;;;;;;;;;;5006788;28;20109;-75
2022/10/26 03:38:33;;;;;;;3.15;1.80;;;;;;;;;;5006593;28;20513;-77
2022/10/26 03:41:03;;;;;;;2.83;1.80;;;;;;;;;;4989824;28;20113;-77
2022/10/26 03:43:32;;;;;;;3.00;1.40;;;;;;;;;;5006730;28;20421;-77
2022/10/26 03:46:02;;;;;;;2.88;1.73;;;;;;;;;;5006872;28;20058;-76
2022/10/26 03:48:32;;;;;;;4.90;1.75;;;;;;;;;;5007051;28;20493;-74
2022/10/26 03:51:02;;;;;;;3.22;1.60;;;;;;;;;;5006567;28;20046;-78
2022/10/26 03:53:32;;;;;;;4.93;2.17;;;;;;;;;;5006790;28;20069;-75
2022/10/26 03:56:02;;;;;;;3.63;1.92;;;;;;;;;;5006337;28;20519;-75
2022/10/26 03:58:34;;;;;;;2.80;1.80;;;;;;;;;;5006880;28;20050;-74
2022/10/26 04:01:03;;;;;;;3.20;1.63;;;;;;;;;;5006556;28;20046;-75
2022/10/26 04:03:33;;;;;;;2.60;1.75;;;;;;;;;;5006535;28;20050;-76
2022/10/26 04:06:04;;;;;;;3.47;1.85;;;;;;;;;;5006146;28;20045;-76
2022/10/26 04:08:34;;;;;;;4.18;2.50;;;;;;;;;;5006334;28;20057;-76
2022/10/26 04:11:04;;;;;;;3.33;1.80;;;;;;;;;;5004803;28;20046;-76
2022/10/26 04:13:33;;;;;;;2.78;1.90;;;;;;;;;;5007537;28;20057;-76
2022/10/26 04:16:03;;;;;;;2.83;1.70;;;;;;;;;;5007079;28;20049;-76
2022/10/26 04:18:33;;;;;;;7.70;1.85;;;;;;;;;;4988655;28;20056;-76
2022/10/26 04:21:03;;;;;;;2.47;1.63;;;;;;;;;;5006728;28;20069;-76
2022/10/26 04:23:32;;;;;;;3.70;2.08;;;;;;;;;;5006479;28;20056;-75
2022/10/26 04:26:04;;;;;;;2.80;2.17;;;;;;;;;;5004961;28;20497;-73
2022/10/26 04:28:35;;;;;;;3.97;2.13;;;;;;;;;;5006577;28;20042;-74
2022/10/26 04:31:04;;;;;;;4.00;2.03;;;;;;;;;;5006898;28;20054;-76
2022/10/26 04:33:34;;;;;;;3.05;2.50;;;;;;;;;;5006205;28;20517;-72
2022/10/26 04:36:04;;;;;;;4.38;2.88;;;;;;;;;;5007025;28;20054;-76
2022/10/26 04:38:34;;;;;;;4.57;2.30;;;;;;;;;;5006356;28;20045;-74
2022/10/26 04:41:03;;;;;;;4.20;2.45;;;;;;;;;;5006672;28;20501;-74
2022/10/26 04:43:33;;;;;;;3.30;2.28;;;;;;;;;;4988198;28;20050;-75
2022/10/26 04:46:04;;;;;;;4.47;2.20;;;;;;;;;;5006215;28;20416;-77
2022/10/26 04:48:33;;;;;;;3.80;2.30;;;;;;;;;;5006240;28;20053;-75
2022/10/26 04:51:03;;;;;;;4.07;1.98;;;;;;;;;;4987422;28;20402;-75
2022/10/26 04:53:33;;;;;;;3.67;2.60;;;;;;;;;;5005715;28;20462;-75
2022/10/26 04:56:04;;;;;;;3.58;2.45;;;;;;;;;;5006590;28;20057;-75
2022/10/26 04:58:35;;;;;;;4.80;2.72;;;;;;;;;;5006261;28;20108;-76
2022/10/26 05:01:05;;;;;;;3.40;2.40;;;;;;;;;;5005802;28;20054;-75
2022/10/26 05:03:36;;;;;;;9.40;2.78;;;;;;;;;;5006443;28;20050;-73
2022/10/26 05:06:06;;;;;;;4.38;2.58;;;;;;;;;;5006032;28;20061;-75
2022/10/26 05:08:36;;;;;;;2.90;2.40;;;;;;;;;;5005644;28;20062;-76
2022/10/26 05:11:05;;;;;;;3.53;2.40;;;;;;;;;;5005905;28;20061;-75
2022/10/26 05:13:35;;;;;;;4.38;2.72;;;;;;;;;;5005949;28;20050;-75
2022/10/26 05:16:05;;;;;;;3.72;2.45;;;;;;;;;;5005627;28;20073;-72
2022/10/26 05:18:35;;;;;;;4.45;2.28;;;;;;;;;;5008446;28;20058;-72
2022/10/26 05:21:05;;;;;;;6.15;2.83;;;;;;;;;;5009398;28;20046;-75
2022/10/26 05:23:34;;;;;;;3.75;2.72;;;;;;;;;;5009301;28;20057;-74
2022/10/26 05:26:04;;;;;;;4.38;2.30;;;;;;;;;;5009428;28;20057;-72
2022/10/26 05:28:34;;;;;;;3.75;2.92;;;;;;;;;;5009185;28;20050;-76
2022/10/26 05:31:04;;;;;;;3.75;2.78;;;;;;;;;;4991604;28;20057;-75
2022/10/26 05:33:33;;;;;;;4.93;3.28;;;;;;;;;;5008905;28;20038;-75
2022/10/26 05:36:05;;;;;;;4.43;2.70;;;;;;;;;;5009141;28;20417;-77
2022/10/26 05:38:35;;;;;;;3.33;2.28;;;;;;;;;;5008103;28;20528;-76
2022/10/26 05:41:05;;;;;;;4.88;2.78;;;;;;;;;;5008699;28;20121;-75
2022/10/26 05:43:35;;;;;;;5.00;3.08;;;;;;;;;;4975043;28;20054;-74
2022/10/26 05:46:05;;;;;;;4.25;2.92;;;;;;;;;;5009015;28;20042;-75
2022/10/26 05:48:35;;;;;;;4.45;2.83;;;;;;;;;;5008873;28;20081;-74
2022/10/26 05:51:05;;;;;;;4.63;2.85;;;;;;;;;;5009100;28;20060;-74
2022/10/26 05:53:35;;;;;;;5.20;2.72;;;;;;;;;;5008564;28;20457;-72
2022/10/26 05:56:33;;;;;;;4.80;2.78;;;;;;;;;;5009195;28;20045;-76
2022/10/26 05:59:10;;;;;;;5.72;3.05;;;;;;;;;;5003809;28;20065;-76
2022/10/26 06:01:55;;;;;;;5.55;3.30;;;;;;;;;;5007813;28;20045;-72
2022/10/26 06:04:46;;;;;;;4.47;3.15;;;;;;;;;;5008513;28;20524;-74
2022/10/26 06:07:22;;;;;;;4.65;3.28;;;;;;;;;;4993249;28;20068;-76
2022/10/26 06:09:52;;;;;;;5.72;3.78;;;;;;;;;;5008273;28;20053;-73
2022/10/26 06:12:24;;;;;;;7.93;3.92;;;;;;;;;;5008722;28;20058;-75
2022/10/26 06:14:55;;;;;;;6.35;3.40;;;;;;;;;;5008606;28;20050;-74
2022/10/26 06:17:48;;;;;;;5.53;3.70;;;;;;;;;;5008404;28;20053;-75
2022/10/26 06:20:46;;;;;;;5.60;3.30;;;;;;;;;;5008415;28;20526;-75
2022/10/26 06:23:49;;;;;;;5.53;3.38;;;;;;;;;;5008630;28;20065;-75
2022/10/26 06:26:19;;;;;;;5.47;3.58;;;;;;;;;;5008440;28;20050;-73
2022/10/26 06:28:57;;;;;;;6.20;3.67;;;;;;;;;;5007740;28;20057;-75
2022/10/26 06:31:27;;;;;;;6.65;3.63;;;;;;;;;;5007936;28;20070;-75
2022/10/26 06:33:59;;;;;;;7.70;4.10;;;;;;;;;;5007570;28;20045;-73
2022/10/26 06:36:30;;;;;;;6.45;3.58;;;;;;;;;;5007902;28;20046;-73
2022/10/26 06:39:09;;;;;;;5.57;3.63;;;;;;;;;;5007706;28;20056;-75
2022/10/26 06:41:39;;;;;;;5.97;3.83;;;;;;;;;;5007922;28;20486;-75
2022/10/26 06:44:21;;;;;;;10.05;4.22;;;;;;;;;;5008041;28;20045;-75
2022/10/26 06:46:53;;;;;;;6.30;3.72;;;;;;;;;;5008323;28;20386;-75
2022/10/26 06:50:02;;;;;;;6.00;3.92;;;;;;;;;;5008186;28;20512;-78
2022/10/26 06:52:48;;;;;;;5.95;3.75;;;;;;;;;;4978328;28;20088;-74
2022/10/26 06:55:18;;;;;;;5.75;3.97;;;;;;;;;;5007580;28;20531;-74
2022/10/26 06:57:49;;;;;;;6.57;3.97;;;;;;;;;;5007361;28;20493;-76
2022/10/26 07:00:24;;;;;;;6.65;4.28;;;;;;;;;;5007694;28;20046;-75
2022/10/26 07:02:55;;;;;;;8.07;4.32;;;;;;;;;;5007812;28;20053;-74
2022/10/26 07:05:25;;;;;;;6.25;4.43;;;;;;;;;;5006536;28;20050;-77
2022/10/26 07:07:54;;;;;;;5.85;3.88;;;;;;;;;;5007160;28;20074;-73
2022/10/26 07:10:24;;;;;;;10.60;4.03;;;;;;;;;;5007874;28;20073;-74
2022/10/26 07:12:54;;;;;;;7.90;4.53;;;;;;;;;;5007699;28;20053;-74
2022/10/26 07:15:24;;;;;;;6.85;4.50;;;;;;;;;;5007562;28;20038;-75
2022/10/26 07:17:53;;;;;;;7.57;4.38;;;;;;;;;;4990062;28;20432;-72
2022/10/26 07:20:23;;;;;;;8.80;4.60;;;;;;;;;;5007136;28;20053;-73
2022/10/26 07:22:56;;;;;;;6.93;4.13;;;;;;;;;;5006996;28;20402;-75
2022/10/26 07:25:28;;;;;;;7.72;4.45;;;;;;;;;;5007063;28;20052;-75
2022/10/26 07:27:59;;;;;;;8.18;4.45;;;;;;;;;;4990108;28;20057;-74
2022/10/26 07:30:29;;;;;;;9.32;5.05;;;;;;;;;;5006884;28;20045;-74
2022/10/26 07:33:04;;;;;;;9.38;4.63;;;;;;;;;;5006968;28;20080;-75
2022/10/26 07:35:35;;;;;;;7.22;4.18;;;;;;;;;;5007396;28;20046;-78
2022/10/26 07:38:05;;;;;;;6.53;4.57;;;;;;;;;;5007331;28;20050;-74
2022/10/26 07:40:37;;;;;;;6.88;4.47;;;;;;;;;;5006659;28;20540;-75
2022/10/26 07:43:06;;;;;;;6.65;4.18;;;;;;;;;;5006626;28;20524;-74
2022/10/26 07:45:36;;;;;;;7.57;3.92;;;;;;;;;;5006967;28;20414;-75
2022/10/26 07:48:06;;;;;;;9.60;5.28;;;;;;;;;;5006618;28;20505;-74
2022/10/26 07:50:36;;;;;;;6.97;3.67;;;;;;;;;;5006957;28;20053;-75
2022/10/26 07:53:06;;;;;;;7.68;4.43;;;;;;;;;;5007062;28;20496;-76
2022/10/26 07:55:35;;;;;;;6.85;4.40;;;;;;;;;;5006387;28;20054;-77
2022/10/26 07:58:05;;;;;;;;;;;;;;;;;;5007103;28;21191;-73
2022/10/26 08:00:34;;;;;;;8.20;4.10;;;;;;;;;;5006744;28;19928;-72
2022/10/26 08:03:04;;;;;;;10.40;4.45;;;;;;;;;;5007394;28;20061;-72
2022/10/26 08:05:35;;;;;;;8.50;4.57;;;;;;;;;;5006448;28;20693;-76
2022/10/26 08:08:05;;;;;;;6.95;4.47;;;;;;;;;;5006820;28;20044;-74
2022/10/26 08:10:34;;;;;;;8.27;4.63;;;;;;;;;;5006696;28;20049;-72
2022/10/26 08:13:04;;;;;;;7.03;4.70;;;;;;;;;;5006661;28;20049;-75
2022/10/26 08:15:33;;;;;;;;;;;;;;;;;;4988758;28;20057;-75
2022/10/26 08:18:03;;;;;;;13.00;3.92;;;;;;;;;;5006659;28;19932;-77
2022/10/26 08:20:34;;;;;;;6.40;3.42;;;;;;;;;;4989013;28;20049;-74
2022/10/26 08:23:05;;;;;;;6.28;3.63;;;;;;;;;;5006371;28;20045;-73
2022/10/26 08:25:35;;;;;;;8.02;4.22;;;;;;;;;;5006580;28;20048;-74
2022/10/26 08:28:04;;;;;;;8.10;4.20;;;;;;;;;;5006243;28;20053;-73
2022/10/26 08:30:34;;;;;;;4.90;3.25;;;;;;;;;;5006860;28;20042;-73
2022/10/26 08:33:06;;;;;;;5.30;3.85;;;;;;;;;;5005913;28;20152;-73
2022/10/26 08:35:36;;;;;;;5.30;3.78;;;;;;;;;;5006229;28;20053;-75
2022/10/26 08:38:06;;;;;;;6.78;4.22;;;;;;;;;;5006021;28;20050;-75
2022/10/26 08:40:41;;;;;;;5.78;3.63;;;;;;;;;;5006236;28;20045;-74
2022/10/26 08:43:26;;;;;;;8.18;3.78;;;;;;;;;;4988754;28;20062;-72
2022/10/26 08:46:24;;;;;;;6.60;4.30;;;;;;;;;;5006735;28;20050;-76
2022/10/26 08:49:18;;;;;;;7.63;4.07;;;;;;;;;;5005958;28;20050;-75
2022/10/26 08:51:50;;;;;;;7.70;4.18;;;;;;;;;;5007863;28;20049;-73
2022/10/26 08:54:37;;;;;;;6.38;4.20;;;;;;;;;;5010763;28;20050;-73
2022/10/26 08:57:42;;;;;;;10.57;4.55;;;;;;;;;;5009494;28;20046;-74
2022/10/26 09:00:22;;;;;;;8.25;4.28;;;;;;;;;;4991780;28;20077;-73
2022/10/26 09:02:53;;;;;;;7.65;4.63;;;;;;;;;;5010053;28;20520;-75
2022/10/26 09:05:41;;;;;;;8.70;3.50;;;;;;;;;;5010250;28;20042;-75
2022/10/26 09:08:19;;;;;;;7.82;3.75;;;;;;;;;;5009659;28;20453;-73
2022/10/26 09:11:32;;;;;;;6.25;3.55;;;;;;;;;;5009284;28;20050;-75
2022/10/26 09:14:11;;;;;;;9.57;4.22;;;;;;;;;;4987292;28;20065;-77
2022/10/26 09:17:05;;;;;;;6.25;4.07;;;;;;;;;;5009888;28;20060;-74
2022/10/26 09:19:55;;;;;;;8.80;4.40;;;;;;;;;;5009355;28;20046;-76
2022/10/26 09:22:36;;;;;;;9.00;4.03;;;;;;;;;;4980069;28;20061;-76
2022/10/26 09:25:17;;;;;;;6.38;4.00;;;;;;;;;;5009627;28;20058;-74
2022/10/26 09:27:59;;;;;;;9.43;4.45;;;;;;;;;;5009006;28;20528;-72
2022/10/26 09:30:29;;;;;;;5.45;3.85;;;;;;;;;;5009374;28;20819;-76
2022/10/26 09:33:05;;;;;;;7.47;4.15;;;;;;;;;;5008922;28;20821;-74
2022/10/26 09:35:57;;;;;;;5.75;3.53;;;;;;;;;;5009233;28;20042;-76
2022/10/26 09:38:32;;;;;;;10.27;4.20;;;;;;;;;;5008570;28;20517;-76
2022/10/26 09:41:28;;;;;;;6.93;4.50;;;;;;;;;;5008831;28;20053;-75
2022/10/26 09:44:17;;;;;;;11.10;4.05;;;;;;;;;;4991324;28;20062;-75
2022/10/26 09:47:15;;;;;;;9.13;4.45;;;;;;;;;;5009496;28;20050;-76
2022/10/26 09:50:02;;;;;;;8.20;4.20;;;;;;;;;;5008705;28;20049;-75
2022/10/26 09:52:32;;;;;;;8.85;4.38;;;;;;;;;;5009068;28;20056;-75
2022/10/26 09:55:02;;;;;;;9.35;4.68;;;;;;;;;;5007983;28;20054;-74
2022/10/26 09:57:33;;;;;;;10.07;3.60;;;;;;;;;;5008558;28;20076;-73
2022/10/26 10:00:04;;;;;;;8.35;3.83;;;;;;;;;;5008365;28;20057;-75
2022/10/26 10:02:44;;;;;;;9.57;5.70;;;;;;;;;;5007987;28;20065;-75
2022/10/26 10:05:36;;;;;;;7.53;3.97;;;;;;;;;;5008717;28;20058;-79
2022/10/26 10:08:26;;;;;;;5.47;3.13;;;;;;;;;;5008164;28;20382;-77
2022/10/26 10:11:06;;;;;;;4.70;3.30;;;;;;;;;;4991147;28;20057;-75
2022/10/26 10:13:44;;;;;;;6.47;2.72;;;;;;;;;;5008108;28;20056;-77
2022/10/26 10:16:23;;;;;;;5.95;3.30;;;;;;;;;;4991188;28;20046;-77
2022/10/26 10:18:57;;;;;;;6.57;3.30;;;;;;;;;;4990328;28;20050;-78
2022/10/26 10:21:35;;;;;;;9.50;3.25;;;;;;;;;;5008735;28;20374;-77
2022/10/26 10:24:23;;;;;;;8.05;2.90;;;;;;;;;;5008475;28;20050;-75
2022/10/26 10:27:15;;;;;;;6.47;2.85;;;;;;;;;;5008044;28;20046;-77
2022/10/26 10:29:48;;;;;;;16.50;3.72;;;;;;;;;;4990393;28;20064;-74
2022/10/26 10:32:21;;;;;;;8.00;2.75;;;;;;;;;;4991129;28;20049;-74
2022/10/26 10:34:53;;;;;;;5.32;3.38;;;;;;;;;;5007250;28;20057;-77
2022/10/26 10:37:25;;;;;;;9.10;2.97;;;;;;;;;;5008084;28;20060;-74
2022/10/26 10:40:02;;;;;;;6.30;3.15;;;;;;;;;;5008224;28;20052;-75
2022/10/26 10:42:37;;;;;;;7.10;3.45;;;;;;;;;;5008746;28;20050;-76
2022/10/26 10:45:18;;;;;;;11.77;5.25;;;;;;;;;;5008206;28;20046;-76
2022/10/26 10:48:19;;;;;;;11.38;5.18;;;;;;;;;;5008119;28;20429;-75
2022/10/26 10:51:09;;;;;;;4.88;3.15;;;;;;;;;;5007523;28;20052;-76
2022/10/26 10:54:17;;;;;;;11.32;3.70;;;;;;;;;;5007183;28;20516;-76
2022/10/26 10:56:53;;;;;;;8.90;3.03;;;;;;;;;;5007276;28;20409;-74
2022/10/26 10:59:55;;;;;;;8.25;3.13;;;;;;;;;;5007369;28;20042;-75
2022/10/26 11:02:43;;;;;;;4.97;2.63;;;;;;;;;;4996962;28;20057;-76
2022/10/26 11:05:31;;;;;;;;;;;;;;;;;;5008180;28;20042;-73
2022/10/26 11:08:31;;;;;;;6.20;2.63;;;;;;;;;;5007623;28;19926;-75
2022/10/26 11:11:09;;;;;;;6.28;3.30;;;;;;;;;;4955641;28;20395;-76
2022/10/26 11:14:04;;;;;;;5.20;2.75;;;;;;;;;;5007092;28;20892;-73
2022/10/26 11:16:46;;;;;;;6.47;3.00;;;;;;;;;;4999723;28;20057;-74
2022/10/26 11:19:19;;;;;;;6.80;2.63;;;;;;;;;;5007312;28;20048;-73
2022/10/26 11:21:56;;;;;;;8.25;3.13;;;;;;;;;;5007413;28;20508;-73
2022/10/26 11:24:41;;;;;;;7.60;3.63;;;;;;;;;;5007406;28;20053;-74
2022/10/26 11:27:41;;;;;;;7.40;3.17;;;;;;;;;;5007379;28;20044;-75
2022/10/26 11:30:24;;;;;;;7.53;3.95;;;;;;;;;;5006878;28;20049;-76
2022/10/26 11:33:03;;;;;;;6.10;3.40;;;;;;;;;;5005216;28;20061;-76
2022/10/26 11:35:53;;;;;;;5.82;2.83;;;;;;;;;;5004858;28;20768;-74
2022/10/26 11:38:38;;;;;;;4.88;2.08;;;;;;;;;;5004974;28;20050;-76
2022/10/26 11:41:30;;;;;;;4.88;3.55;;;;;;;;;;5004367;28;20042;-77
2022/10/26 11:44:21;;;;;;;6.15;2.83;;;;;;;;;;5005539;28;20034;-76
2022/10/26 11:47:16;;;;;;;4.38;2.28;;;;;;;;;;5005547;28;20069;-75
2022/10/26 11:50:14;;;;;;;4.65;2.40;;;;;;;;;;5006474;28;20061;-75
2022/10/26 11:52:59;;;;;;;4.63;2.40;;;;;;;;;;5002135;28;20057;-76
2022/10/26 11:55:30;;;;;;;6.78;2.22;;;;;;;;;;5010186;28;20042;-74
2022/10/26 11:58:01;;;;;;;3.90;2.20;;;;;;;;;;5007276;28;20054;-73
2022/10/26 12:00:33;;;;;;;5.60;2.20;;;;;;;;;;5006576;28;20050;-74
2022/10/26 12:03:13;;;;;;;4.47;1.98;;;;;;;;;;5007373;28;20041;-74
2022/10/26 12:05:51;;;;;;;10.23;3.10;;;;;;;;;;5006627;28;20416;-73
2022/10/26 12:08:42;;;;;;;5.18;2.30;;;;;;;;;;5006640;28;20064;-74
2022/10/26 12:11:37;;;;;;;5.53;2.45;;;;;;;;;;5006545;28;20042;-74
2022/10/26 12:14:23;;;;;;;4.95;2.35;;;;;;;;;;5006367;28;20073;-73
2022/10/26 12:17:14;;;;;;;4.47;1.83;;;;;;;;;;5006247;28;20042;-76
2022/10/26 12:20:17;;;;;;;4.15;2.03;;;;;;;;;;5006674;28;20057;-76
2022/10/26 12:22:48;;;;;;;4.30;1.73;;;;;;;;;;5006305;28;20046;-76
2022/10/26 12:25:21;;;;;;;7.97;2.80;;;;;;;;;;5005991;28;20057;-75
2022/10/26 12:27:57;;;;;;;13.68;2.35;;;;;;;;;;5010633;28;20413;-74
2022/10/26 12:30:32;;;;;;;2.88;1.65;;;;;;;;;;5009366;28;20378;-78
2022/10/26 12:33:23;;;;;;;6.35;2.42;;;;;;;;;;5009812;28;20052;-79
2022/10/26 12:35:53;;;;;;;2.63;1.98;;;;;;;;;;5010439;28;20052;-78
2022/10/26 12:38:23;;;;;;;4.20;1.88;;;;;;;;;;5010038;28;20044;-76
2022/10/26 12:41:10;;;;;;;4.20;2.03;;;;;;;;;;5010403;28;20046;-73
2022/10/26 12:43:41;;;;;;;4.20;2.58;;;;;;;;;;5009703;28;20818;-77
2022/10/26 12:46:16;;;;;;;4.05;2.10;;;;;;;;;;5009920;28;20053;-77
2022/10/26 12:48:47;;;;;;;3.80;2.92;;;;;;;;;;5009730;28;20046;-76
2022/10/26 12:51:29;;;;;;;5.95;2.65;;;;;;;;;;5009783;28;20046;-75
2022/10/26 12:54:40;;;;;;;4.32;2.28;;;;;;;;;;5009479;28;20046;-76
2022/10/26 12:57:18;;;;;;;5.40;1.80;;;;;;;;;;5010557;28;20069;-75
2022/10/26 13:00:04;;;;;;;2.33;1.55;;;;;;;;;;5009937;28;20053;-76
2022/10/26 13:03:07;;;;;;;3.08;1.55;;;;;;;;;;4992114;28;20053;-77
2022/10/26 13:05:58;;;;;;;5.60;2.10;;;;;;;;;;5009690;28;20038;-75
2022/10/26 13:08:48;;;;;;;5.28;1.77;;;;;;;;;;5009698;28;20053;-74
2022/10/26 13:11:30;;;;;;;1.63;1.50;;;;;;;;;;5009814;28;20493;-74
2022/10/26 13:14:08;;;;;;;3.63;1.67;;;;;;;;;;5009578;28;20038;-80
2022/10/26 13:16:44;;;;;;;5.43;2.03;;;;;;;;;;5009827;28;20759;-74
2022/10/26 13:19:48;;;;;;;5.10;1.65;;;;;;;;;;5009657;28;20544;-76
2022/10/26 13:22:23;;;;;;;3.47;1.95;;;;;;;;;;4999876;28;20397;-75
2022/10/26 13:24:57;;;;;;;2.90;2.13;;;;;;;;;;5009768;28;20516;-76
2022/10/26 13:27:34;;;;;;;2.13;1.60;;;;;;;;;;5009433;28;20042;-74
2022/10/26 13:30:04;;;;;;;2.90;1.92;;;;;;;;;;5009493;28;20046;-77
2022/10/26 13:32:52;;;;;;;2.85;2.65;;;;;;;;;;5008901;28;21169;-77
2022/10/26 13:35:23;;;;;;;;;;;;;;;;;;5009545;28;20060;-76
2022/10/26 13:37:55;;;;;;;3.42;1.75;;;;;;;;;;5007869;28;19948;-74
2022/10/26 13:40:28;;;;;;;3.28;2.13;;;;;;;;;;5009051;28;20890;-75
2022/10/26 13:43:03;;;;;;;4.47;2.13;;;;;;;;;;5009119;28;20857;-76
2022/10/26 13:46:01;;;;;;;10.38;1.80;;;;;;;;;;5009410;28;20049;-76
2022/10/26 13:48:39;;;;;;;1.85;1.52;;;;;;;;;;5007654;28;20073;-75
2022/10/26 13:51:23;;;;;;;2.85;1.83;;;;;;;;;;5009216;28;20053;-76
2022/10/26 13:54:07;;;;;;;2.78;1.55;;;;;;;;;;5009402;28;20041;-73
2022/10/26 13:56:43;;;;;;;4.45;2.00;;;;;;;;;;5007025;28;20054;-77
2022/10/26 13:59:14;;;;;;;5.60;1.70;;;;;;;;;;5008892;28;20050;-74
2022/10/26 14:01:44;;;;;;;4.28;1.67;;;;;;;;;;5008225;28;20046;-76
2022/10/26 14:04:24;;;;;;;5.07;1.95;;;;;;;;;;5008469;28;20050;-75
2022/10/26 14:06:55;;;;;;;7.10;2.03;;;;;;;;;;5008828;28;20513;-74
2022/10/26 14:09:24;;;;;;;1.63;1.52;;;;;;;;;;5008457;28;20054;-77
2022/10/26 14:12:00;;;;;;;3.05;1.83;;;;;;;;;;5008573;28;20531;-75
2022/10/26 14:14:38;;;;;;;6.15;2.00;;;;;;;;;;5008194;28;20375;-77
2022/10/26 14:17:18;;;;;;;3.33;2.03;;;;;;;;;;5008692;28;20061;-75
2022/10/26 14:19:50;;;;;;;2.72;1.70;;;;;;;;;;5008051;28;20818;-75
2022/10/26 14:22:29;;;;;;;2.30;1.88;;;;;;;;;;5008231;28;20045;-75
2022/10/26 14:25:00;;;;;;;3.40;2.00;;;;;;;;;;5008981;28;20501;-78
2022/10/26 14:27:33;;;;;;;4.22;1.80;;;;;;;;;;5010194;28;20042;-75
2022/10/26 14:30:30;;;;;;;7.97;1.90;;;;;;;;;;5007944;28;20498;-77
2022/10/26 14:33:00;;;;;;;4.70;1.90;;;;;;;;;;5008417;28;20041;-75
2022/10/26 14:35:36;;;;;;;2.50;1.92;;;;;;;;;;5008356;28;20049;-75
2022/10/26 14:38:16;;;;;;;3.63;1.52;;;;;;;;;;5008389;28;20045;-78
2022/10/26 14:40:48;;;;;;;2.72;1.95;;;;;;;;;;5008115;28;20050;-76
2022/10/26 14:43:22;;;;;;;3.70;1.90;;;;;;;;;;5007932;28;20041;-80
2022/10/26 14:45:53;;;;;;;3.88;1.85;;;;;;;;;;5007690;28;20413;-78
2022/10/26 14:48:34;;;;;;;4.78;1.83;;;;;;;;;;5008624;28;20045;-78
2022/10/26 14:51:18;;;;;;;2.00;1.42;;;;;;;;;;5007909;28;20497;-76
2022/10/26 14:53:52;;;;;;;3.72;1.67;;;;;;;;;;5007423;28;20038;-76
2022/10/26 14:56:39;;;;;;;4.32;2.05;;;;;;;;;;5007888;28;20045;-78
2022/10/26 14:59:30;;;;;;;3.28;1.67;;;;;;;;;;5007349;28;20366;-78
2022/10/26 15:02:21;;;;;;;4.72;1.92;;;;;;;;;;5007471;28;20058;-78
2022/10/26 15:05:16;;;;;;;7.05;1.63;;;;;;;;;;5007448;28;20042;-75
2022/10/26 15:07:46;;;;;;;4.30;1.70;;;;;;;;;;5007261;28;20050;-76
2022/10/26 15:10:35;;;;;;;4.28;2.00;;;;;;;;;;5007746;28;20068;-75
2022/10/26 15:13:19;;;;;;;3.30;1.70;;;;;;;;;;5007645;28;20041;-80
2022/10/26 15:15:50;;;;;;;3.55;1.77;;;;;;;;;;5007721;28;20057;-73
2022/10/26 15:18:32;;;;;;;5.75;2.08;;;;;;;;;;5007242;28;20084;-76
2022/10/26 15:21:02;;;;;;;2.63;1.80;;;;;;;;;;5007483;28;20100;-73
2022/10/26 15:23:37;;;;;;;4.40;1.75;;;;;;;;;;5007380;28;20603;-73
2022/10/26 15:26:11;;;;;;;2.47;1.75;;;;;;;;;;5007487;28;20049;-74
2022/10/26 15:28:42;;;;;;;7.75;1.73;;;;;;;;;;5006829;28;20056;-73
2022/10/26 15:31:13;;;;;;;2.70;1.88;;;;;;;;;;5006748;28;20045;-75
2022/10/26 15:33:52;;;;;;;2.58;1.67;;;;;;;;;;5007047;28;20054;-76
2022/10/26 15:36:30;;;;;;;2.22;1.70;;;;;;;;;;5007249;28;20061;-75
2022/10/26 15:39:00;;;;;;;3.90;1.67;;;;;;;;;;5007038;28;20049;-76
2022/10/26 15:41:35;;;;;;;3.40;1.80;;;;;;;;;;5007010;28;20061;-74
2022/10/26 15:44:18;;;;;;;3.60;2.13;;;;;;;;;;5007176;28;20054;-75